sensor_id;sensor_type;location;lat;lon;timestamp;P1;durP1;ratioP1;P2;durP2;ratioP2
9166;SDS011;4618;48.818;9.088;2023-08-06T00:02:06;5.00;;;4.60;;
9166;SDS011;4618;48.818;9.088;2023-08-06T00:04:31;5.60;;;4.43;;
9166;SDS011;4618;48.818;9.088;2023-08-06T00:06:57;5.63;;;5.07;;
9166;SDS011;4618;48.818;9.088;2023-08-06T00:09:23;5.10;;;4.70;;
9166;SDS011;4618;48.818;9.088;2023-08-06T00:11:48;4.83;;;4.50;;
9166;SDS011;4618;48.818;9.088;2023-08-06T00:14:14;4.90;;;4.37;;
9166;SDS011;4618;48.818;9.088;2023-08-06T00:16:45;4.87;;;4.13;;
9166;SDS011;4618;48.818;9.088;2023-08-06T00:19:11;4.03;;;3.73;;
9166;SDS011;4618;48.818;9.088;2023-08-06T00:21:36;6.57;;;4.63;;
9166;SDS011;4618;48.818;9.088;2023-08-06T00:24:02;4.77;;;4.37;;
9166;SDS011;4618;48.818;9.088;2023-08-06T00:26:28;5.07;;;4.67;;
9166;SDS011;4618;48.818;9.088;2023-08-06T00:28:53;4.23;;;3.93;;
9166;SDS011;4618;48.818;9.088;2023-08-06T00:31:19;4.33;;;4.00;;
9166;SDS011;4618;48.818;9.088;2023-08-06T00:33:45;4.50;;;4.10;;
9166;SDS011;4618;48.818;9.088;2023-08-06T00:36:10;4.73;;;4.33;;
9166;SDS011;4618;48.818;9.088;2023-08-06T00:38:36;3.83;;;3.53;;
9166;SDS011;4618;48.818;9.088;2023-08-06T00:41:01;4.17;;;3.77;;
9166;SDS011;4618;48.818;9.088;2023-08-06T00:43:27;4.17;;;3.87;;
9166;SDS011;4618;48.818;9.088;2023-08-06T00:45:52;4.07;;;3.67;;
9166;SDS011;4618;48.818;9.088;2023-08-06T00:48:18;4.63;;;3.90;;
9166;SDS011;4618;48.818;9.088;2023-08-06T00:50:44;4.27;;;3.93;;
9166;SDS011;4618;48.818;9.088;2023-08-06T00:53:10;5.87;;;4.43;;
9166;SDS011;4618;48.818;9.088;2023-08-06T00:55:36;5.87;;;4.40;;
9166;SDS011;4618;48.818;9.088;2023-08-06T00:58:01;4.87;;;4.47;;
9166;SDS011;4618;48.818;9.088;2023-08-06T01:00:27;4.73;;;4.33;;
9166;SDS011;4618;48.818;9.088;2023-08-06T01:02:53;5.30;;;4.60;;
9166;SDS011;4618;48.818;9.088;2023-08-06T01:05:20;5.37;;;4.60;;
9166;SDS011;4618;48.818;9.088;2023-08-06T01:08:02;4.83;;;4.40;;
9166;SDS011;4618;48.818;9.088;2023-08-06T01:10:51;5.43;;;4.10;;
9166;SDS011;4618;48.818;9.088;2023-08-06T01:13:31;6.70;;;4.37;;
9166;SDS011;4618;48.818;9.088;2023-08-06T01:16:02;4.53;;;4.20;;
9166;SDS011;4618;48.818;9.088;2023-08-06T01:18:30;4.53;;;4.13;;
9166;SDS011;4618;48.818;9.088;2023-08-06T01:20:56;4.90;;;4.40;;
9166;SDS011;4618;48.818;9.088;2023-08-06T01:23:42;4.53;;;4.23;;
9166;SDS011;4618;48.818;9.088;2023-08-06T01:26:10;5.27;;;4.63;;
9166;SDS011;4618;48.818;9.088;2023-08-06T01:28:48;6.67;;;4.30;;
9166;SDS011;4618;48.818;9.088;2023-08-06T01:31:38;4.80;;;4.40;;
9166;SDS011;4618;48.818;9.088;2023-08-06T01:34:09;4.37;;;3.97;;
9166;SDS011;4618;48.818;9.088;2023-08-06T01:36:38;4.27;;;3.93;;
9166;SDS011;4618;48.818;9.088;2023-08-06T01:39:05;5.17;;;3.90;;
9166;SDS011;4618;48.818;9.088;2023-08-06T01:41:31;4.43;;;3.77;;
9166;SDS011;4618;48.818;9.088;2023-08-06T01:43:56;4.07;;;3.67;;
9166;SDS011;4618;48.818;9.088;2023-08-06T01:46:22;5.70;;;4.20;;
9166;SDS011;4618;48.818;9.088;2023-08-06T01:48:48;4.40;;;4.00;;
9166;SDS011;4618;48.818;9.088;2023-08-06T01:51:13;4.80;;;3.93;;
9166;SDS011;4618;48.818;9.088;2023-08-06T01:53:39;3.60;;;3.30;;
9166;SDS011;4618;48.818;9.088;2023-08-06T01:56:04;3.70;;;3.07;;
9166;SDS011;4618;48.818;9.088;2023-08-06T01:58:30;4.07;;;2.97;;
9166;SDS011;4618;48.818;9.088;2023-08-06T02:00:56;3.20;;;2.80;;
9166;SDS011;4618;48.818;9.088;2023-08-06T02:03:21;2.77;;;2.57;;
9166;SDS011;4618;48.818;9.088;2023-08-06T02:05:47;2.70;;;2.50;;
9166;SDS011;4618;48.818;9.088;2023-08-06T02:08:12;3.67;;;2.80;;
9166;SDS011;4618;48.818;9.088;2023-08-06T02:10:38;3.10;;;2.80;;
9166;SDS011;4618;48.818;9.088;2023-08-06T02:13:03;2.77;;;2.57;;
9166;SDS011;4618;48.818;9.088;2023-08-06T02:15:29;2.67;;;2.47;;
9166;SDS011;4618;48.818;9.088;2023-08-06T02:17:55;2.37;;;2.17;;
9166;SDS011;4618;48.818;9.088;2023-08-06T02:20:21;2.60;;;2.23;;
9166;SDS011;4618;48.818;9.088;2023-08-06T02:22:46;4.80;;;2.60;;
9166;SDS011;4618;48.818;9.088;2023-08-06T02:25:12;2.80;;;2.53;;
9166;SDS011;4618;48.818;9.088;2023-08-06T02:27:38;2.50;;;2.30;;
9166;SDS011;4618;48.818;9.088;2023-08-06T02:30:04;2.87;;;2.67;;
9166;SDS011;4618;48.818;9.088;2023-08-06T02:32:30;2.73;;;2.40;;
9166;SDS011;4618;48.818;9.088;2023-08-06T02:34:57;3.03;;;2.23;;
9166;SDS011;4618;48.818;9.088;2023-08-06T02:37:22;3.10;;;2.43;;
9166;SDS011;4618;48.818;9.088;2023-08-06T02:39:48;3.67;;;2.50;;
9166;SDS011;4618;48.818;9.088;2023-08-06T02:42:14;4.53;;;2.50;;
9166;SDS011;4618;48.818;9.088;2023-08-06T02:44:39;2.43;;;2.23;;
9166;SDS011;4618;48.818;9.088;2023-08-06T02:47:05;2.53;;;2.17;;
9166;SDS011;4618;48.818;9.088;2023-08-06T02:49:31;3.00;;;2.30;;
9166;SDS011;4618;48.818;9.088;2023-08-06T02:51:56;2.50;;;2.30;;
9166;SDS011;4618;48.818;9.088;2023-08-06T02:54:22;3.73;;;2.17;;
9166;SDS011;4618;48.818;9.088;2023-08-06T02:56:47;3.00;;;2.30;;
9166;SDS011;4618;48.818;9.088;2023-08-06T02:59:13;3.73;;;2.10;;
9166;SDS011;4618;48.818;9.088;2023-08-06T03:01:39;2.23;;;2.03;;
9166;SDS011;4618;48.818;9.088;2023-08-06T03:04:04;2.30;;;2.10;;
9166;SDS011;4618;48.818;9.088;2023-08-06T03:06:30;2.40;;;2.20;;
9166;SDS011;4618;48.818;9.088;2023-08-06T03:08:56;2.93;;;2.47;;
9166;SDS011;4618;48.818;9.088;2023-08-06T03:11:22;2.37;;;2.00;;
9166;SDS011;4618;48.818;9.088;2023-08-06T03:13:48;2.33;;;2.13;;
9166;SDS011;4618;48.818;9.088;2023-08-06T03:16:14;2.27;;;2.10;;
9166;SDS011;4618;48.818;9.088;2023-08-06T03:18:39;4.97;;;2.20;;
9166;SDS011;4618;48.818;9.088;2023-08-06T03:21:05;2.23;;;1.80;;
9166;SDS011;4618;48.818;9.088;2023-08-06T03:23:31;2.20;;;2.00;;
9166;SDS011;4618;48.818;9.088;2023-08-06T03:26:00;2.33;;;1.97;;
9166;SDS011;4618;48.818;9.088;2023-08-06T03:28:27;4.67;;;2.00;;
9166;SDS011;4618;48.818;9.088;2023-08-06T03:31:02;3.50;;;1.80;;
9166;SDS011;4618;48.818;9.088;2023-08-06T03:33:28;2.50;;;1.70;;
9166;SDS011;4618;48.818;9.088;2023-08-06T03:35:53;3.07;;;1.70;;
9166;SDS011;4618;48.818;9.088;2023-08-06T03:38:19;3.27;;;1.90;;
9166;SDS011;4618;48.818;9.088;2023-08-06T03:40:45;2.67;;;1.90;;
9166;SDS011;4618;48.818;9.088;2023-08-06T03:43:11;4.73;;;2.17;;
9166;SDS011;4618;48.818;9.088;2023-08-06T03:45:37;2.93;;;1.80;;
9166;SDS011;4618;48.818;9.088;2023-08-06T03:48:03;3.43;;;2.20;;
9166;SDS011;4618;48.818;9.088;2023-08-06T03:50:29;2.90;;;1.80;;
9166;SDS011;4618;48.818;9.088;2023-08-06T03:52:54;2.27;;;1.77;;
9166;SDS011;4618;48.818;9.088;2023-08-06T03:55:20;4.57;;;1.60;;
9166;SDS011;4618;48.818;9.088;2023-08-06T03:57:46;3.23;;;2.07;;
9166;SDS011;4618;48.818;9.088;2023-08-06T04:00:12;3.27;;;1.90;;
9166;SDS011;4618;48.818;9.088;2023-08-06T04:02:38;3.70;;;1.77;;
9166;SDS011;4618;48.818;9.088;2023-08-06T04:05:03;3.83;;;1.90;;
9166;SDS011;4618;48.818;9.088;2023-08-06T04:07:29;1.83;;;1.73;;
9166;SDS011;4618;48.818;9.088;2023-08-06T04:09:58;4.17;;;2.07;;
9166;SDS011;4618;48.818;9.088;2023-08-06T04:12:26;2.97;;;2.20;;
9166;SDS011;4618;48.818;9.088;2023-08-06T04:14:51;4.37;;;2.40;;
9166;SDS011;4618;48.818;9.088;2023-08-06T04:17:18;3.90;;;2.57;;
9166;SDS011;4618;48.818;9.088;2023-08-06T04:19:45;3.53;;;2.27;;
9166;SDS011;4618;48.818;9.088;2023-08-06T04:22:12;5.30;;;2.50;;
9166;SDS011;4618;48.818;9.088;2023-08-06T04:24:39;4.30;;;2.90;;
9166;SDS011;4618;48.818;9.088;2023-08-06T04:27:04;2.60;;;2.40;;
9166;SDS011;4618;48.818;9.088;2023-08-06T04:29:30;2.97;;;2.30;;
9166;SDS011;4618;48.818;9.088;2023-08-06T04:31:56;4.23;;;2.50;;
9166;SDS011;4618;48.818;9.088;2023-08-06T04:34:21;4.87;;;2.43;;
9166;SDS011;4618;48.818;9.088;2023-08-06T04:36:47;4.00;;;2.53;;
9166;SDS011;4618;48.818;9.088;2023-08-06T04:39:13;3.40;;;2.40;;
9166;SDS011;4618;48.818;9.088;2023-08-06T04:41:39;4.50;;;2.77;;
9166;SDS011;4618;48.818;9.088;2023-08-06T04:44:04;6.53;;;2.50;;
9166;SDS011;4618;48.818;9.088;2023-08-06T04:46:30;4.57;;;2.50;;
9166;SDS011;4618;48.818;9.088;2023-08-06T04:48:55;4.17;;;3.10;;
9166;SDS011;4618;48.818;9.088;2023-08-06T04:51:21;2.90;;;2.70;;
9166;SDS011;4618;48.818;9.088;2023-08-06T04:53:46;4.57;;;3.00;;
9166;SDS011;4618;48.818;9.088;2023-08-06T04:56:12;3.27;;;2.40;;
9166;SDS011;4618;48.818;9.088;2023-08-06T04:58:38;3.60;;;2.70;;
9166;SDS011;4618;48.818;9.088;2023-08-06T05:01:03;3.73;;;2.40;;
9166;SDS011;4618;48.818;9.088;2023-08-06T05:03:29;5.20;;;2.87;;
9166;SDS011;4618;48.818;9.088;2023-08-06T05:05:54;4.77;;;3.03;;
9166;SDS011;4618;48.818;9.088;2023-08-06T05:08:20;5.10;;;2.90;;
9166;SDS011;4618;48.818;9.088;2023-08-06T05:10:45;3.90;;;3.13;;
9166;SDS011;4618;48.818;9.088;2023-08-06T05:13:11;9.17;;;3.50;;
9166;SDS011;4618;48.818;9.088;2023-08-06T05:15:37;4.47;;;3.30;;
9166;SDS011;4618;48.818;9.088;2023-08-06T05:18:04;4.90;;;3.40;;
9166;SDS011;4618;48.818;9.088;2023-08-06T05:20:30;6.43;;;3.93;;
9166;SDS011;4618;48.818;9.088;2023-08-06T05:22:56;3.57;;;2.80;;
9166;SDS011;4618;48.818;9.088;2023-08-06T05:25:21;2.93;;;2.10;;
9166;SDS011;4618;48.818;9.088;2023-08-06T05:27:47;1.93;;;1.73;;
9166;SDS011;4618;48.818;9.088;2023-08-06T05:30:12;2.87;;;1.70;;
9166;SDS011;4618;48.818;9.088;2023-08-06T05:32:38;3.43;;;1.20;;
9166;SDS011;4618;48.818;9.088;2023-08-06T05:35:04;1.20;;;1.00;;
9166;SDS011;4618;48.818;9.088;2023-08-06T05:37:29;1.77;;;0.80;;
9166;SDS011;4618;48.818;9.088;2023-08-06T05:39:55;2.10;;;0.80;;
9166;SDS011;4618;48.818;9.088;2023-08-06T05:42:21;1.87;;;0.73;;
9166;SDS011;4618;48.818;9.088;2023-08-06T05:44:46;0.93;;;0.60;;
9166;SDS011;4618;48.818;9.088;2023-08-06T05:47:12;0.70;;;0.50;;
9166;SDS011;4618;48.818;9.088;2023-08-06T05:49:37;0.80;;;0.60;;
9166;SDS011;4618;48.818;9.088;2023-08-06T05:52:03;0.97;;;0.63;;
9166;SDS011;4618;48.818;9.088;2023-08-06T05:54:31;2.40;;;0.63;;
9166;SDS011;4618;48.818;9.088;2023-08-06T05:56:57;1.07;;;0.60;;
9166;SDS011;4618;48.818;9.088;2023-08-06T05:59:22;2.00;;;0.70;;
9166;SDS011;4618;48.818;9.088;2023-08-06T06:01:48;3.03;;;0.50;;
9166;SDS011;4618;48.818;9.088;2023-08-06T06:04:13;1.47;;;0.60;;
9166;SDS011;4618;48.818;9.088;2023-08-06T06:06:39;0.83;;;0.50;;
9166;SDS011;4618;48.818;9.088;2023-08-06T06:09:06;2.13;;;0.33;;
9166;SDS011;4618;48.818;9.088;2023-08-06T06:11:32;0.50;;;0.50;;
9166;SDS011;4618;48.818;9.088;2023-08-06T06:13:58;0.87;;;0.47;;
9166;SDS011;4618;48.818;9.088;2023-08-06T06:16:23;1.50;;;0.60;;
9166;SDS011;4618;48.818;9.088;2023-08-06T06:18:49;2.07;;;0.50;;
9166;SDS011;4618;48.818;9.088;2023-08-06T06:21:14;0.73;;;0.60;;
9166;SDS011;4618;48.818;9.088;2023-08-06T06:23:40;2.53;;;0.60;;
9166;SDS011;4618;48.818;9.088;2023-08-06T06:26:06;0.97;;;0.40;;
9166;SDS011;4618;48.818;9.088;2023-08-06T06:28:31;1.37;;;0.30;;
9166;SDS011;4618;48.818;9.088;2023-08-06T06:31:00;1.37;;;0.50;;
9166;SDS011;4618;48.818;9.088;2023-08-06T06:33:26;1.70;;;0.50;;
9166;SDS011;4618;48.818;9.088;2023-08-06T06:35:52;1.80;;;0.30;;
9166;SDS011;4618;48.818;9.088;2023-08-06T06:38:17;1.23;;;0.30;;
9166;SDS011;4618;48.818;9.088;2023-08-06T06:40:43;0.53;;;0.20;;
9166;SDS011;4618;48.818;9.088;2023-08-06T06:43:08;1.77;;;0.33;;
9166;SDS011;4618;48.818;9.088;2023-08-06T06:45:34;0.93;;;0.30;;
9166;SDS011;4618;48.818;9.088;2023-08-06T06:48:00;1.23;;;0.30;;
9166;SDS011;4618;48.818;9.088;2023-08-06T06:50:25;1.43;;;0.47;;
9166;SDS011;4618;48.818;9.088;2023-08-06T06:52:51;0.83;;;0.40;;
9166;SDS011;4618;48.818;9.088;2023-08-06T06:55:17;1.30;;;0.27;;
9166;SDS011;4618;48.818;9.088;2023-08-06T06:57:42;0.93;;;0.30;;
9166;SDS011;4618;48.818;9.088;2023-08-06T07:00:08;0.93;;;0.30;;
9166;SDS011;4618;48.818;9.088;2023-08-06T07:02:34;0.50;;;0.20;;
9166;SDS011;4618;48.818;9.088;2023-08-06T07:04:59;1.90;;;0.63;;
9166;SDS011;4618;48.818;9.088;2023-08-06T07:07:25;1.17;;;0.33;;
9166;SDS011;4618;48.818;9.088;2023-08-06T07:09:50;0.50;;;0.10;;
9166;SDS011;4618;48.818;9.088;2023-08-06T07:12:16;0.23;;;0.20;;
9166;SDS011;4618;48.818;9.088;2023-08-06T07:14:42;0.77;;;0.20;;
9166;SDS011;4618;48.818;9.088;2023-08-06T07:17:07;0.80;;;0.40;;
9166;SDS011;4618;48.818;9.088;2023-08-06T07:19:33;0.50;;;0.20;;
9166;SDS011;4618;48.818;9.088;2023-08-06T07:21:58;0.57;;;0.40;;
9166;SDS011;4618;48.818;9.088;2023-08-06T07:24:24;0.50;;;0.40;;
9166;SDS011;4618;48.818;9.088;2023-08-06T07:26:49;0.93;;;0.40;;
9166;SDS011;4618;48.818;9.088;2023-08-06T07:29:15;0.83;;;0.30;;
9166;SDS011;4618;48.818;9.088;2023-08-06T07:31:46;0.57;;;0.20;;
9166;SDS011;4618;48.818;9.088;2023-08-06T07:34:11;2.17;;;0.30;;
9166;SDS011;4618;48.818;9.088;2023-08-06T07:36:37;0.40;;;0.30;;
9166;SDS011;4618;48.818;9.088;2023-08-06T07:39:02;0.77;;;0.40;;
9166;SDS011;4618;48.818;9.088;2023-08-06T07:41:31;0.53;;;0.30;;
9166;SDS011;4618;48.818;9.088;2023-08-06T07:43:56;0.30;;;0.30;;
9166;SDS011;4618;48.818;9.088;2023-08-06T07:46:22;0.70;;;0.27;;
9166;SDS011;4618;48.818;9.088;2023-08-06T07:48:48;0.20;;;0.20;;
9166;SDS011;4618;48.818;9.088;2023-08-06T07:51:13;0.50;;;0.27;;
9166;SDS011;4618;48.818;9.088;2023-08-06T07:53:39;0.20;;;0.20;;
9166;SDS011;4618;48.818;9.088;2023-08-06T07:56:04;1.97;;;0.17;;
9166;SDS011;4618;48.818;9.088;2023-08-06T07:58:30;0.50;;;0.10;;
9166;SDS011;4618;48.818;9.088;2023-08-06T08:00:56;1.43;;;0.20;;
9166;SDS011;4618;48.818;9.088;2023-08-06T08:03:22;0.30;;;0.20;;
9166;SDS011;4618;48.818;9.088;2023-08-06T08:05:48;1.50;;;0.30;;
9166;SDS011;4618;48.818;9.088;2023-08-06T08:08:13;0.67;;;0.13;;
9166;SDS011;4618;48.818;9.088;2023-08-06T08:10:39;0.23;;;0.17;;
9166;SDS011;4618;48.818;9.088;2023-08-06T08:13:05;0.30;;;0.10;;
9166;SDS011;4618;48.818;9.088;2023-08-06T08:15:31;0.10;;;0.10;;
9166;SDS011;4618;48.818;9.088;2023-08-06T08:17:57;0.00;;;0.00;;
9166;SDS011;4618;48.818;9.088;2023-08-06T08:20:23;0.00;;;0.00;;
9166;SDS011;4618;48.818;9.088;2023-08-06T08:22:49;0.23;;;0.00;;
9166;SDS011;4618;48.818;9.088;2023-08-06T08:25:15;0.40;;;0.13;;
9166;SDS011;4618;48.818;9.088;2023-08-06T08:27:41;0.10;;;0.10;;
9166;SDS011;4618;48.818;9.088;2023-08-06T08:30:07;0.03;;;0.00;;
9166;SDS011;4618;48.818;9.088;2023-08-06T08:32:33;0.63;;;0.63;;
9166;SDS011;4618;48.818;9.088;2023-08-06T08:34:58;0.90;;;0.90;;
9166;SDS011;4618;48.818;9.088;2023-08-06T08:37:24;0.20;;;0.20;;
9166;SDS011;4618;48.818;9.088;2023-08-06T08:39:50;0.40;;;0.10;;
9166;SDS011;4618;48.818;9.088;2023-08-06T08:42:15;0.10;;;0.10;;
9166;SDS011;4618;48.818;9.088;2023-08-06T08:44:44;0.10;;;0.00;;
9166;SDS011;4618;48.818;9.088;2023-08-06T08:47:10;0.23;;;0.10;;
9166;SDS011;4618;48.818;9.088;2023-08-06T08:49:37;0.83;;;0.10;;
9166;SDS011;4618;48.818;9.088;2023-08-06T08:52:03;0.00;;;0.00;;
9166;SDS011;4618;48.818;9.088;2023-08-06T08:54:35;0.20;;;0.07;;
9166;SDS011;4618;48.818;9.088;2023-08-06T08:57:04;0.20;;;0.10;;
9166;SDS011;4618;48.818;9.088;2023-08-06T08:59:30;0.00;;;0.00;;
9166;SDS011;4618;48.818;9.088;2023-08-06T09:01:58;0.00;;;0.00;;
9166;SDS011;4618;48.818;9.088;2023-08-06T09:04:25;0.00;;;0.00;;
9166;SDS011;4618;48.818;9.088;2023-08-06T09:06:53;0.93;;;0.00;;
9166;SDS011;4618;48.818;9.088;2023-08-06T09:09:22;0.07;;;0.00;;
9166;SDS011;4618;48.818;9.088;2023-08-06T09:11:51;0.10;;;0.00;;
9166;SDS011;4618;48.818;9.088;2023-08-06T09:14:20;0.00;;;0.00;;
9166;SDS011;4618;48.818;9.088;2023-08-06T09:16:46;0.00;;;0.00;;
9166;SDS011;4618;48.818;9.088;2023-08-06T09:19:13;0.63;;;0.00;;
9166;SDS011;4618;48.818;9.088;2023-08-06T09:21:40;0.00;;;0.00;;
9166;SDS011;4618;48.818;9.088;2023-08-06T09:24:11;0.00;;;0.00;;
9166;SDS011;4618;48.818;9.088;2023-08-06T09:26:37;0.00;;;0.00;;
9166;SDS011;4618;48.818;9.088;2023-08-06T09:29:06;0.13;;;0.00;;
9166;SDS011;4618;48.818;9.088;2023-08-06T09:31:34;0.20;;;0.10;;
9166;SDS011;4618;48.818;9.088;2023-08-06T09:34:14;0.00;;;0.00;;
9166;SDS011;4618;48.818;9.088;2023-08-06T09:36:51;0.73;;;0.00;;
9166;SDS011;4618;48.818;9.088;2023-08-06T09:39:21;0.10;;;0.10;;
9166;SDS011;4618;48.818;9.088;2023-08-06T09:41:55;0.00;;;0.00;;
9166;SDS011;4618;48.818;9.088;2023-08-06T09:44:25;0.00;;;0.00;;
9166;SDS011;4618;48.818;9.088;2023-08-06T09:46:55;0.20;;;0.20;;
9166;SDS011;4618;48.818;9.088;2023-08-06T09:49:26;1.03;;;0.07;;
9166;SDS011;4618;48.818;9.088;2023-08-06T09:51:53;0.13;;;0.00;;
9166;SDS011;4618;48.818;9.088;2023-08-06T09:54:24;0.47;;;0.10;;
9166;SDS011;4618;48.818;9.088;2023-08-06T09:56:52;0.30;;;0.20;;
9166;SDS011;4618;48.818;9.088;2023-08-06T09:59:18;0.43;;;0.30;;
9166;SDS011;4618;48.818;9.088;2023-08-06T10:01:44;0.10;;;0.10;;
9166;SDS011;4618;48.818;9.088;2023-08-06T10:04:10;0.00;;;0.00;;
9166;SDS011;4618;48.818;9.088;2023-08-06T10:06:41;0.10;;;0.10;;
9166;SDS011;4618;48.818;9.088;2023-08-06T10:09:08;0.10;;;0.07;;
9166;SDS011;4618;48.818;9.088;2023-08-06T10:11:34;0.00;;;0.00;;
9166;SDS011;4618;48.818;9.088;2023-08-06T10:14:04;0.10;;;0.10;;
9166;SDS011;4618;48.818;9.088;2023-08-06T10:16:49;0.00;;;0.00;;
9166;SDS011;4618;48.818;9.088;2023-08-06T10:19:16;0.10;;;0.00;;
9166;SDS011;4618;48.818;9.088;2023-08-06T10:22:07;0.10;;;0.00;;
9166;SDS011;4618;48.818;9.088;2023-08-06T10:24:54;0.20;;;0.00;;
9166;SDS011;4618;48.818;9.088;2023-08-06T10:30:19;0.20;;;0.10;;
9166;SDS011;4618;48.818;9.088;2023-08-06T10:33:01;0.00;;;0.00;;
9166;SDS011;4618;48.818;9.088;2023-08-06T10:40:38;0.03;;;0.03;;
9166;SDS011;4618;48.818;9.088;2023-08-06T10:43:05;0.03;;;0.03;;
9166;SDS011;4618;48.818;9.088;2023-08-06T10:45:36;0.20;;;0.00;;
9166;SDS011;4618;48.818;9.088;2023-08-06T10:48:03;0.83;;;0.17;;
9166;SDS011;4618;48.818;9.088;2023-08-06T10:50:29;0.93;;;0.10;;
9166;SDS011;4618;48.818;9.088;2023-08-06T10:52:56;0.10;;;0.00;;
9166;SDS011;4618;48.818;9.088;2023-08-06T10:55:28;0.33;;;0.00;;
9166;SDS011;4618;48.818;9.088;2023-08-06T10:57:54;0.00;;;0.00;;
9166;SDS011;4618;48.818;9.088;2023-08-06T11:00:22;0.50;;;0.30;;
9166;SDS011;4618;48.818;9.088;2023-08-06T11:02:51;0.20;;;0.20;;
9166;SDS011;4618;48.818;9.088;2023-08-06T11:05:18;0.17;;;0.17;;
9166;SDS011;4618;48.818;9.088;2023-08-06T11:07:44;0.30;;;0.20;;
9166;SDS011;4618;48.818;9.088;2023-08-06T11:10:10;0.30;;;0.10;;
9166;SDS011;4618;48.818;9.088;2023-08-06T11:12:37;0.30;;;0.30;;
9166;SDS011;4618;48.818;9.088;2023-08-06T11:15:04;1.40;;;0.30;;
9166;SDS011;4618;48.818;9.088;2023-08-06T11:17:32;0.57;;;0.20;;
9166;SDS011;4618;48.818;9.088;2023-08-06T11:19:59;0.23;;;0.23;;
9166;SDS011;4618;48.818;9.088;2023-08-06T11:22:25;0.30;;;0.30;;
9166;SDS011;4618;48.818;9.088;2023-08-06T11:24:52;0.43;;;0.43;;
9166;SDS011;4618;48.818;9.088;2023-08-06T11:27:18;0.20;;;0.20;;
9166;SDS011;4618;48.818;9.088;2023-08-06T11:29:44;0.70;;;0.30;;
9166;SDS011;4618;48.818;9.088;2023-08-06T11:32:12;0.40;;;0.40;;
9166;SDS011;4618;48.818;9.088;2023-08-06T11:34:38;0.40;;;0.40;;
9166;SDS011;4618;48.818;9.088;2023-08-06T11:37:05;0.40;;;0.40;;
9166;SDS011;4618;48.818;9.088;2023-08-06T11:39:34;1.60;;;0.60;;
9166;SDS011;4618;48.818;9.088;2023-08-06T11:42:05;0.87;;;0.47;;
9166;SDS011;4618;48.818;9.088;2023-08-06T11:44:32;1.10;;;0.67;;
9166;SDS011;4618;48.818;9.088;2023-08-06T11:46:59;1.07;;;0.60;;
9166;SDS011;4618;48.818;9.088;2023-08-06T11:49:37;1.33;;;0.90;;
9166;SDS011;4618;48.818;9.088;2023-08-06T11:52:07;0.97;;;0.90;;
9166;SDS011;4618;48.818;9.088;2023-08-06T11:54:38;1.30;;;1.20;;
9166;SDS011;4618;48.818;9.088;2023-08-06T11:57:07;1.10;;;1.00;;
9166;SDS011;4618;48.818;9.088;2023-08-06T11:59:33;1.77;;;1.00;;
9166;SDS011;4618;48.818;9.088;2023-08-06T12:02:02;1.50;;;1.00;;
9166;SDS011;4618;48.818;9.088;2023-08-06T12:04:32;1.27;;;1.03;;
9166;SDS011;4618;48.818;9.088;2023-08-06T12:07:26;1.10;;;1.00;;
9166;SDS011;4618;48.818;9.088;2023-08-06T12:09:53;2.50;;;1.00;;
9166;SDS011;4618;48.818;9.088;2023-08-06T12:12:18;2.37;;;1.60;;
9166;SDS011;4618;48.818;9.088;2023-08-06T12:14:44;1.53;;;1.37;;
9166;SDS011;4618;48.818;9.088;2023-08-06T12:17:09;1.27;;;1.10;;
9166;SDS011;4618;48.818;9.088;2023-08-06T12:19:35;1.63;;;1.10;;
9166;SDS011;4618;48.818;9.088;2023-08-06T12:22:01;3.00;;;0.97;;
9166;SDS011;4618;48.818;9.088;2023-08-06T12:24:27;2.40;;;0.93;;
9166;SDS011;4618;48.818;9.088;2023-08-06T12:26:56;1.63;;;1.00;;
9166;SDS011;4618;48.818;9.088;2023-08-06T12:29:27;1.47;;;1.10;;
9166;SDS011;4618;48.818;9.088;2023-08-06T12:31:53;2.13;;;1.10;;
9166;SDS011;4618;48.818;9.088;2023-08-06T12:34:19;1.63;;;0.90;;
9166;SDS011;4618;48.818;9.088;2023-08-06T12:36:44;1.13;;;0.80;;
9166;SDS011;4618;48.818;9.088;2023-08-06T12:39:10;1.20;;;0.80;;
9166;SDS011;4618;48.818;9.088;2023-08-06T12:41:35;2.73;;;0.70;;
9166;SDS011;4618;48.818;9.088;2023-08-06T12:44:01;2.13;;;0.60;;
9166;SDS011;4618;48.818;9.088;2023-08-06T12:46:27;2.43;;;0.60;;
9166;SDS011;4618;48.818;9.088;2023-08-06T12:48:52;1.23;;;0.50;;
9166;SDS011;4618;48.818;9.088;2023-08-06T12:51:18;2.00;;;0.50;;
9166;SDS011;4618;48.818;9.088;2023-08-06T12:53:43;1.50;;;0.30;;
9166;SDS011;4618;48.818;9.088;2023-08-06T12:56:09;0.93;;;0.53;;
9166;SDS011;4618;48.818;9.088;2023-08-06T12:58:34;0.63;;;0.50;;
9166;SDS011;4618;48.818;9.088;2023-08-06T13:01:00;0.50;;;0.50;;
9166;SDS011;4618;48.818;9.088;2023-08-06T13:03:25;0.57;;;0.50;;
9166;SDS011;4618;48.818;9.088;2023-08-06T13:05:51;0.50;;;0.50;;
9166;SDS011;4618;48.818;9.088;2023-08-06T13:08:17;1.70;;;0.60;;
9166;SDS011;4618;48.818;9.088;2023-08-06T13:10:42;1.23;;;0.63;;
9166;SDS011;4618;48.818;9.088;2023-08-06T13:13:08;2.27;;;0.70;;
9166;SDS011;4618;48.818;9.088;2023-08-06T13:15:35;1.40;;;0.70;;
9166;SDS011;4618;48.818;9.088;2023-08-06T13:18:01;1.80;;;0.60;;
9166;SDS011;4618;48.818;9.088;2023-08-06T13:20:26;0.80;;;0.60;;
9166;SDS011;4618;48.818;9.088;2023-08-06T13:22:52;0.40;;;0.40;;
9166;SDS011;4618;48.818;9.088;2023-08-06T13:25:18;0.50;;;0.50;;
9166;SDS011;4618;48.818;9.088;2023-08-06T13:27:44;0.90;;;0.47;;
9166;SDS011;4618;48.818;9.088;2023-08-06T13:30:11;0.47;;;0.40;;
9166;SDS011;4618;48.818;9.088;2023-08-06T13:32:36;0.70;;;0.30;;
9166;SDS011;4618;48.818;9.088;2023-08-06T13:35:05;0.77;;;0.40;;
9166;SDS011;4618;48.818;9.088;2023-08-06T13:37:31;1.20;;;0.30;;
9166;SDS011;4618;48.818;9.088;2023-08-06T13:39:56;0.27;;;0.20;;
9166;SDS011;4618;48.818;9.088;2023-08-06T13:42:22;0.30;;;0.30;;
9166;SDS011;4618;48.818;9.088;2023-08-06T13:44:48;1.27;;;0.30;;
9166;SDS011;4618;48.818;9.088;2023-08-06T13:47:13;0.50;;;0.30;;
9166;SDS011;4618;48.818;9.088;2023-08-06T13:49:39;1.50;;;0.30;;
9166;SDS011;4618;48.818;9.088;2023-08-06T13:52:04;0.30;;;0.30;;
9166;SDS011;4618;48.818;9.088;2023-08-06T13:54:30;0.83;;;0.23;;
9166;SDS011;4618;48.818;9.088;2023-08-06T13:56:55;0.40;;;0.40;;
9166;SDS011;4618;48.818;9.088;2023-08-06T13:59:21;0.97;;;0.40;;
9166;SDS011;4618;48.818;9.088;2023-08-06T14:01:49;3.90;;;0.47;;
9166;SDS011;4618;48.818;9.088;2023-08-06T14:04:15;0.83;;;0.30;;
9166;SDS011;4618;48.818;9.088;2023-08-06T14:06:41;0.43;;;0.30;;
9166;SDS011;4618;48.818;9.088;2023-08-06T14:09:06;0.50;;;0.50;;
9166;SDS011;4618;48.818;9.088;2023-08-06T14:11:32;0.87;;;0.50;;
9166;SDS011;4618;48.818;9.088;2023-08-06T14:13:58;0.73;;;0.37;;
9166;SDS011;4618;48.818;9.088;2023-08-06T14:16:25;0.57;;;0.30;;
9166;SDS011;4618;48.818;9.088;2023-08-06T14:18:50;0.50;;;0.30;;
9166;SDS011;4618;48.818;9.088;2023-08-06T14:21:16;0.90;;;0.50;;
9166;SDS011;4618;48.818;9.088;2023-08-06T14:23:41;0.43;;;0.43;;
9166;SDS011;4618;48.818;9.088;2023-08-06T14:26:07;0.40;;;0.40;;
9166;SDS011;4618;48.818;9.088;2023-08-06T14:28:35;1.97;;;0.40;;
9166;SDS011;4618;48.818;9.088;2023-08-06T14:31:01;0.70;;;0.40;;
9166;SDS011;4618;48.818;9.088;2023-08-06T14:33:27;1.27;;;0.50;;
9166;SDS011;4618;48.818;9.088;2023-08-06T14:35:52;0.60;;;0.37;;
9166;SDS011;4618;48.818;9.088;2023-08-06T14:38:18;0.60;;;0.40;;
9166;SDS011;4618;48.818;9.088;2023-08-06T14:40:43;1.70;;;0.40;;
9166;SDS011;4618;48.818;9.088;2023-08-06T14:43:09;0.70;;;0.43;;
9166;SDS011;4618;48.818;9.088;2023-08-06T14:45:38;0.47;;;0.47;;
9166;SDS011;4618;48.818;9.088;2023-08-06T14:48:04;0.90;;;0.43;;
9166;SDS011;4618;48.818;9.088;2023-08-06T14:50:31;1.47;;;0.40;;
9166;SDS011;4618;48.818;9.088;2023-08-06T14:52:56;0.50;;;0.43;;
9166;SDS011;4618;48.818;9.088;2023-08-06T14:55:25;0.50;;;0.50;;
9166;SDS011;4618;48.818;9.088;2023-08-06T14:57:51;0.57;;;0.50;;
9166;SDS011;4618;48.818;9.088;2023-08-06T15:00:17;0.43;;;0.43;;
9166;SDS011;4618;48.818;9.088;2023-08-06T15:02:44;0.50;;;0.50;;
9166;SDS011;4618;48.818;9.088;2023-08-06T15:05:10;0.57;;;0.40;;
9166;SDS011;4618;48.818;9.088;2023-08-06T15:07:35;2.53;;;0.40;;
9166;SDS011;4618;48.818;9.088;2023-08-06T15:10:02;1.50;;;0.40;;
9166;SDS011;4618;48.818;9.088;2023-08-06T15:12:29;1.07;;;0.40;;
9166;SDS011;4618;48.818;9.088;2023-08-06T15:14:55;0.57;;;0.37;;
9166;SDS011;4618;48.818;9.088;2023-08-06T15:17:22;0.70;;;0.40;;
9166;SDS011;4618;48.818;9.088;2023-08-06T15:19:48;0.67;;;0.37;;
9166;SDS011;4618;48.818;9.088;2023-08-06T15:22:13;0.50;;;0.30;;